Time;durP1;ratioP1;P1;durP2;ratioP2;P2;SDS_P1;SDS_P2;PMS_P1;PMS_P2;Temp;Humidity;BMP_temperature;BMP_pressure;BME280_temperature;BME280_humidity;BME280_pressure;Samples;Min_cycle;Max_cycle;Signal;HPM_P1;HPM_P2
2022/08/16 00:00:37;;;;;;;23.45;17.23;;;;;;;22.78;68.39;100633.06;6136670;23;20147;-50
2022/08/16 00:03:03;;;;;;;24.05;17.38;;;;;;;22.73;68.67;100633.25;6138437;23;20008;-50
2022/08/16 00:05:33;;;;;;;23.75;17.30;;;;;;;22.79;68.32;100640.13;6140526;23;20036;-52
2022/08/16 00:07:58;;;;;;;24.00;16.13;;;;;;;22.81;68.13;100635.59;6104719;23;20075;-49
2022/08/16 00:10:31;;;;;;;25.20;16.60;;;;;;;22.82;68.29;100646.16;6104261;23;20048;-52
2022/08/16 00:12:58;;;;;;;24.85;17.73;;;;;;;22.77;68.68;100647.28;6137380;23;20096;-52
2022/08/16 00:15:36;;;;;;;22.17;16.15;;;;;;;22.83;67.98;100649.69;6128730;23;20005;-52
2022/08/16 00:18:03;;;;;;;24.45;17.92;;;;;;;22.76;68.42;100651.72;6131695;23;20009;-53
2022/08/16 00:20:30;;;;;;;24.77;17.58;;;;;;;22.72;68.59;100651.88;6134394;23;20005;-52
2022/08/16 00:22:56;;;;;;;24.35;17.45;;;;;;;22.74;68.68;100648.28;6138310;23;20501;-53
2022/08/16 00:25:23;;;;;;;25.50;17.70;;;;;;;22.70;68.95;100646.63;6113858;23;20042;-51
2022/08/16 00:27:51;;;;;;;23.52;16.48;;;;;;;22.75;68.41;100649.16;6124627;23;20004;-50
2022/08/16 00:30:19;;;;;;;22.40;16.67;;;;;;;22.72;68.28;100647.47;6104605;23;20353;-52
2022/08/16 00:32:47;;;;;;;23.95;16.58;;;;;;;22.78;68.38;100655.19;6139371;23;20005;-50
2022/08/16 00:35:17;;;;;;;23.35;16.40;;;;;;;22.71;68.03;100651.00;6133564;23;20012;-52
2022/08/16 00:37:44;;;;;;;24.85;16.35;;;;;;;22.75;68.29;100651.81;6126718;23;20110;-49
2022/08/16 00:40:13;;;;;;;24.00;17.60;;;;;;;22.66;68.59;100655.66;6136657;23;20392;-51
2022/08/16 00:42:41;;;;;;;24.42;16.85;;;;;;;22.67;68.50;100658.25;6130856;23;20013;-52
2022/08/16 00:45:36;;;;;;;22.35;16.10;;;;;;;22.67;68.79;100654.72;6106008;23;20348;-52
2022/08/16 00:48:07;;;;;;;25.05;17.23;;;;;;;22.62;68.61;100659.38;6135052;23;20009;-49
2022/08/16 00:50:35;;;;;;;22.08;16.70;;;;;;;22.61;69.00;100655.84;6115726;23;20008;-52
2022/08/16 00:53:00;;;;;;;25.90;16.75;;;;;;;22.66;68.31;100661.81;6127314;23;20005;-48
2022/08/16 00:55:27;;;;;;;23.77;16.85;;;;;;;22.71;68.41;100664.28;6137348;23;20441;-51
2022/08/16 00:57:56;;;;;;;19.67;15.20;;;;;;;22.74;68.25;100666.00;6125450;23;20291;-48
2022/08/16 01:00:26;;;;;;;23.95;17.35;;;;;;;22.65;68.32;100656.56;6144050;23;20016;-49
2022/08/16 01:02:55;;;;;;;19.83;16.10;;;;;;;22.71;68.21;100652.81;6145087;23;20614;-50
2022/08/16 01:05:22;;;;;;;21.92;15.95;;;;;;;22.76;67.42;100654.38;6120233;23;20435;-52
2022/08/16 01:07:50;;;;;;;25.13;17.58;;;;;;;22.66;67.82;100650.34;6130186;23;20675;-47
2022/08/16 01:10:15;;;;;;;22.30;15.32;;;;;;;22.74;67.31;100648.28;6124018;23;20001;-50
2022/08/16 01:12:41;;;;;;;23.40;16.45;;;;;;;22.66;67.86;100650.34;6137825;23;20024;-50
2022/08/16 01:15:07;;;;;;;22.73;16.52;;;;;;;22.66;67.48;100645.88;6140888;23;20016;-52
2022/08/16 01:17:37;;;;;;;22.88;16.83;;;;;;;22.53;67.95;100644.63;6118550;23;20019;-49
2022/08/16 01:20:31;;;;;;;23.25;16.70;;;;;;;22.49;68.00;100635.06;6115788;23;20512;-52
2022/08/16 01:23:32;;;;;;;20.25;15.75;;;;;;;22.59;67.59;100639.06;6110960;23;20036;-51
2022/08/16 01:25:58;;;;;;;21.52;15.48;;;;;;;22.63;67.10;100635.38;6080507;23;20523;-52
2022/08/16 01:28:25;;;;;;;23.63;17.33;;;;;;;22.57;67.37;100640.06;6142231;23;20032;-49
2022/08/16 01:30:55;;;;;;;21.23;16.13;;;;;;;22.65;66.84;100637.97;6124870;23;20059;-52
2022/08/16 01:33:21;;;;;;;23.92;17.52;;;;;;;22.56;67.15;100638.34;6142663;23;20113;-51
2022/08/16 01:35:55;;;;;;;25.33;17.17;;;;;;;22.57;67.22;100640.91;6094094;23;20017;-50
2022/08/16 01:38:24;;;;;;;22.65;17.27;;;;;;;22.49;67.64;100640.38;6133560;23;20039;-51
2022/08/16 01:40:53;;;;;;;26.73;17.77;;;;;;;22.48;67.37;100635.13;6132438;23;20084;-48
2022/08/16 01:43:20;;;;;;;26.35;17.33;;;;;;;22.47;67.48;100636.03;6097656;23;20079;-52
2022/08/16 01:45:54;;;;;;;24.88;17.85;;;;;;;22.40;67.96;100642.50;6131685;23;20565;-49
2022/08/16 01:48:20;;;;;;;23.17;17.38;;;;;;;22.37;68.06;100638.19;6124881;23;20422;-50
2022/08/16 01:50:48;;;;;;;25.00;18.20;;;;;;;22.32;68.34;100640.19;6138335;23;20639;-52
2022/08/16 01:53:20;;;;;;;23.75;17.45;;;;;;;22.26;68.57;100641.25;6101749;23;20009;-49
2022/08/16 01:55:47;;;;;;;27.13;18.55;;;;;;;22.21;68.75;100651.19;6103540;23;20541;-50
2022/08/16 01:58:16;;;;;;;25.98;18.17;;;;;;;22.15;69.06;100651.41;6145572;23;20015;-51
2022/08/16 02:00:42;;;;;;;25.40;17.63;;;;;;;22.15;69.56;100650.56;6113078;23;20473;-48
2022/08/16 02:03:14;;;;;;;24.17;17.42;;;;;;;22.14;69.16;100648.84;6089779;23;20001;-49
2022/08/16 02:05:42;;;;;;;24.83;18.17;;;;;;;22.10;69.30;100653.38;6073929;23;20353;-51
2022/08/16 02:08:13;;;;;;;26.70;17.85;;;;;;;22.07;69.42;100656.16;6048540;23;20096;-51
2022/08/16 02:10:38;;;;;;;30.10;19.15;;;;;;;21.97;69.67;100646.78;6048875;23;20301;-48
2022/08/16 02:13:06;;;;;;;29.02;18.48;;;;;;;22.01;69.92;100648.44;6046103;23;20501;-49
2022/08/16 02:15:39;;;;;;;28.08;18.55;;;;;;;21.97;69.89;100637.97;6068250;23;20009;-54
2022/08/16 02:18:06;;;;;;;;;;;;;;;22.00;69.96;100648.47;6056607;23;20444;-51
2022/08/16 02:20:38;;;;;;;25.52;17.48;;;;;;;22.08;69.52;100638.47;6084453;23;20333;-50
2022/08/16 02:23:38;;;;;;;26.33;18.70;;;;;;;22.03;69.73;100641.25;6041844;23;20006;-49
2022/08/16 02:26:05;;;;;;;28.35;18.08;;;;;;;22.02;69.50;100651.94;6046834;23;20009;-51
2022/08/16 02:28:33;;;;;;;26.33;18.70;;;;;;;21.98;69.67;100650.31;6085925;23;20006;-51
2022/08/16 02:31:04;;;;;;;29.55;19.65;;;;;;;21.82;70.29;100650.88;6081794;23;20006;-52
2022/08/16 02:33:36;;;;;;;28.88;20.08;;;;;;;21.79;70.96;100644.78;6052545;23;20052;-49
2022/08/16 02:36:02;;;;;;;29.70;18.67;;;;;;;21.82;70.91;100640.25;6089727;23;20005;-52
2022/08/16 02:38:28;;;;;;;27.55;18.52;;;;;;;21.82;70.66;100639.38;6076720;23;20006;-52
2022/08/16 02:40:55;;;;;;;28.25;19.67;;;;;;;21.77;70.85;100631.56;6083757;23;20033;-50
2022/08/16 02:43:27;;;;;;;29.55;19.88;;;;;;;21.80;70.62;100635.91;6050771;23;20026;-52
2022/08/16 02:45:52;;;;;;;26.85;18.80;;;;;;;21.80;70.65;100636.78;6050437;23;20326;-50
2022/08/16 02:48:17;;;;;;;30.73;20.60;;;;;;;21.79;70.93;100632.38;6073786;23;20006;-54
2022/08/16 02:50:44;;;;;;;32.45;22.38;;;;;;;21.81;70.83;100635.00;6050494;23;20013;-50
2022/08/16 02:53:16;;;;;;;31.58;20.80;;;;;;;21.86;70.37;100631.25;6078786;23;20110;-49
2022/08/16 02:55:48;;;;;;;30.65;20.23;;;;;;;21.93;70.03;100636.31;6072192;23;20010;-56
2022/08/16 02:58:14;;;;;;;31.40;20.35;;;;;;;21.97;69.61;100633.53;6053578;23;20266;-51
2022/08/16 03:00:39;;;;;;;33.88;20.25;;;;;;;21.97;69.56;100635.31;6084982;23;20093;-51
2022/08/16 03:03:05;;;;;;;29.05;20.25;;;;;;;21.99;69.48;100641.44;6075417;23;20010;-50
2022/08/16 03:05:34;;;;;;;30.10;20.60;;;;;;;21.93;69.69;100641.63;6080763;23;20346;-49
2022/08/16 03:08:03;;;;;;;28.83;20.42;;;;;;;21.94;69.24;100635.41;6078782;23;20427;-53
2022/08/16 03:10:28;;;;;;;31.38;21.02;;;;;;;21.91;69.48;100639.03;6047241;23;20025;-52
2022/08/16 03:12:53;;;;;;;32.53;21.10;;;;;;;21.93;69.78;100633.66;6080749;23;20010;-52
2022/08/16 03:15:19;;;;;;;31.00;21.75;;;;;;;21.95;69.45;100640.69;6073568;23;20439;-50
2022/08/16 03:17:44;;;;;;;31.95;21.00;;;;;;;21.94;69.41;100633.63;6075804;23;20359;-52
2022/08/16 03:20:14;;;;;;;30.95;21.38;;;;;;;21.94;69.71;100638.06;6079755;23;20010;-49
2022/08/16 03:22:40;;;;;;;32.45;21.27;;;;;;;21.89;69.42;100642.69;6071309;23;20024;-49
2022/08/16 03:25:10;;;;;;;29.17;20.30;;;;;;;21.90;69.56;100644.38;6030586;23;20097;-52
2022/08/16 03:27:37;;;;;;;32.90;21.67;;;;;;;21.85;69.32;100640.13;6062052;23;20018;-50
2022/08/16 03:30:32;;;;;;;32.58;21.63;;;;;;;21.77;69.65;100647.47;6083069;23;20006;-52
2022/08/16 03:32:58;;;;;;;33.65;22.15;;;;;;;21.75;69.84;100640.53;6077936;23;20109;-50
2022/08/16 03:35:28;;;;;;;35.83;23.00;;;;;;;21.65;70.53;100647.94;6082720;23;20088;-52
2022/08/16 03:37:56;;;;;;;36.03;22.85;;;;;;;21.66;70.17;100651.44;6066570;23;20747;-51
2022/08/16 03:40:23;;;;;;;39.38;24.38;;;;;;;21.53;71.13;100645.72;6079024;23;20061;-53
2022/08/16 03:42:48;;;;;;;41.25;24.80;;;;;;;21.58;70.68;100648.22;6077750;23;20461;-52
2022/08/16 03:45:14;;;;;;;35.88;23.27;;;;;;;21.60;70.72;100647.22;6072210;23;20442;-50
2022/08/16 03:47:41;;;;;;;35.88;23.75;;;;;;;21.60;70.53;100651.66;6078258;23;20040;-52
2022/08/16 03:50:08;;;;;;;38.25;25.02;;;;;;;21.58;70.60;100650.88;6071890;23;20508;-49
2022/08/16 03:52:36;;;;;;;38.40;25.35;;;;;;;21.58;70.33;100649.09;6076064;23;20061;-51
2022/08/16 03:55:03;;;;;;;38.20;25.42;;;;;;;21.63;69.85;100647.13;6031348;23;20540;-50
2022/08/16 03:57:33;;;;;;;40.75;25.80;;;;;;;21.55;70.16;100650.97;6049246;23;20017;-51
2022/08/16 03:59:59;;;;;;;37.25;24.60;;;;;;;21.64;69.72;100658.63;6069966;23;20025;-48
2022/08/16 04:02:24;;;;;;;35.30;23.73;;;;;;;21.67;69.57;100653.19;6073428;23;20006;-51
2022/08/16 04:04:52;;;;;;;36.60;23.50;;;;;;;21.63;69.17;100648.91;6078732;23;20010;-51
2022/08/16 04:07:18;;;;;;;39.30;24.92;;;;;;;21.62;69.30;100652.50;6057590;23;20018;-50
2022/08/16 04:09:44;;;;;;;39.53;24.77;;;;;;;21.64;69.10;100661.28;6048532;23;20327;-50
2022/08/16 04:12:11;;;;;;;36.05;25.05;;;;;;;21.57;69.37;100665.94;6085890;23;20006;-50
2022/08/16 04:14:36;;;;;;;39.00;25.23;;;;;;;21.59;69.09;100663.22;6066410;23;20014;-53
2022/08/16 04:17:04;;;;;;;38.20;25.55;;;;;;;21.51;69.24;100673.22;6082770;23;20449;-52
2022/08/16 04:19:38;;;;;;;35.60;23.85;;;;;;;21.64;68.91;100671.88;6068848;23;20038;-48
2022/08/16 04:22:04;;;;;;;33.60;23.65;;;;;;;21.67;68.70;100669.09;6030780;23;20438;-51
2022/08/16 04:24:31;;;;;;;35.60;23.75;;;;;;;21.68;68.41;100677.03;6077320;23;20080;-52
2022/08/16 04:27:08;;;;;;;36.78;25.48;;;;;;;21.51;69.23;100676.75;6081314;23;20980;-52
2022/08/16 04:29:53;;;;;;;38.75;26.17;;;;;;;21.63;68.60;100678.09;6075085;23;20403;-48
2022/08/16 04:32:18;;;;;;;36.15;24.70;;;;;;;21.65;68.49;100684.22;6070759;23;20013;-48
2022/08/16 04:34:45;;;;;;;40.25;27.98;;;;;;;21.54;68.97;100683.72;6082933;23;20010;-48
2022/08/16 04:37:10;;;;;;;35.83;24.98;;;;;;;21.63;68.54;100684.28;6081173;23;20081;-50
2022/08/16 04:39:36;;;;;;;36.90;26.20;;;;;;;21.63;68.68;100692.25;6068974;23;20013;-51
2022/08/16 04:42:04;;;;;;;42.83;27.60;;;;;;;21.48;69.11;100687.44;6070060;23;20005;-53
2022/08/16 04:44:30;;;;;;;40.85;26.67;;;;;;;21.52;68.92;100683.78;6026885;23;20021;-53
2022/08/16 04:46:57;;;;;;;42.05;27.20;;;;;;;21.54;68.76;100689.88;6079560;23;20006;-51
2022/08/16 04:49:24;;;;;;;38.35;25.20;;;;;;;21.56;69.34;100681.88;6032364;23;20029;-47
2022/08/16 04:51:50;;;;;;;42.55;27.58;;;;;;;21.57;68.99;100681.84;6069489;23;20495;-52
2022/08/16 04:54:16;;;;;;;42.50;25.90;;;;;;;21.61;68.71;100674.63;6077132;23;20469;-50
2022/08/16 04:56:42;;;;;;;40.67;27.55;;;;;;;21.52;68.88;100688.22;6073471;23;20014;-51
2022/08/16 04:59:08;;;;;;;38.10;25.98;;;;;;;21.47;69.03;100688.34;6080639;23;20395;-50
2022/08/16 05:01:36;;;;;;;34.92;24.83;;;;;;;21.68;68.47;100692.94;6076035;23;20082;-49
2022/08/16 05:04:01;;;;;;;39.30;24.55;;;;;;;21.65;68.49;100698.34;6067428;23;20043;-50
2022/08/16 05:06:27;;;;;;;34.42;24.52;;;;;;;21.82;68.14;100703.06;6137868;23;20735;-52
2022/08/16 05:08:53;;;;;;;36.58;24.95;;;;;;;21.80;67.76;100700.47;6103605;23;20815;-50
2022/08/16 05:11:19;;;;;;;38.25;25.30;;;;;;;21.85;67.52;100698.50;6139739;23;20060;-50
2022/08/16 05:13:46;;;;;;;34.10;23.40;;;;;;;22.01;67.17;100705.97;6128223;23;20005;-51
2022/08/16 05:16:15;;;;;;;32.53;22.08;;;;;;;22.00;66.88;100694.47;6127893;23;20235;-52
2022/08/16 05:18:40;;;;;;;35.80;24.25;;;;;;;22.06;67.01;100699.56;6142846;23;20015;-51
2022/08/16 05:21:06;;;;;;;32.05;22.25;;;;;;;22.22;66.43;100698.06;6115236;23;20633;-48
2022/08/16 05:23:40;;;;;;;29.48;21.67;;;;;;;22.35;65.99;100697.59;6135973;23;20016;-49
2022/08/16 05:26:08;;;;;;;37.35;24.77;;;;;;;22.31;66.08;100706.63;6132098;23;20039;-50
2022/08/16 05:28:42;;;;;;;33.42;24.27;;;;;;;22.30;66.29;100700.44;6136902;23;20198;-53
2022/08/16 05:31:20;;;;;;;37.63;25.45;;;;;;;22.20;66.79;100701.72;6130270;23;20016;-52
2022/08/16 05:33:48;;;;;;;33.53;22.70;;;;;;;22.48;65.73;100702.41;6085717;23;20020;-50
2022/08/16 05:36:14;;;;;;;34.70;22.48;;;;;;;22.59;65.74;100699.31;6125496;23;20524;-52
2022/08/16 05:38:39;;;;;;;32.00;23.63;;;;;;;22.73;64.72;100704.13;6138075;23;20029;-50
2022/08/16 05:41:06;;;;;;;31.95;24.20;;;;;;;22.86;64.01;100708.91;6136678;23;20013;-49
2022/08/16 05:43:31;;;;;;;36.00;25.58;;;;;;;22.84;64.44;100718.75;6139599;23;20287;-48
2022/08/16 05:46:18;;;;;;;34.47;24.70;;;;;;;22.86;64.27;100713.38;6131150;23;20967;-54
2022/08/16 05:48:44;;;;;;;32.70;24.73;;;;;;;22.92;63.97;100721.97;6108409;23;20850;-50
2022/08/16 05:51:10;;;;;;;31.83;23.85;;;;;;;22.97;64.11;100727.97;6118252;23;20016;-48
2022/08/16 05:53:35;;;;;;;36.30;25.30;;;;;;;22.73;64.87;100718.31;6130075;23;20013;-48
2022/08/16 05:56:00;;;;;;;33.28;24.85;;;;;;;23.04;63.84;100721.47;6136515;23;20762;-50
2022/08/16 05:58:26;;;;;;;38.22;24.13;;;;;;;23.11;63.91;100721.22;6128008;23;20382;-51
2022/08/16 06:00:52;;;;;;;39.17;25.40;;;;;;;23.21;63.69;100725.22;6141015;23;20333;-51
2022/08/16 06:03:21;;;;;;;34.58;23.08;;;;;;;23.33;63.56;100719.41;6135273;23;20370;-48
2022/08/16 06:05:46;;;;;;;36.03;25.25;;;;;;;23.34;63.20;100713.16;6092748;23;20083;-51
2022/08/16 06:08:11;;;;;;;33.63;23.38;;;;;;;23.34;63.47;100716.69;6099763;23;20013;-50
2022/08/16 06:10:37;;;;;;;34.58;22.63;;;;;;;23.40;63.53;100716.44;6128869;23;20001;-49
2022/08/16 06:13:02;;;;;;;36.45;24.55;;;;;;;23.60;62.98;100720.94;6108123;23;20095;-51
2022/08/16 06:15:28;;;;;;;33.47;23.58;;;;;;;23.64;62.62;100719.00;6097733;23;20052;-53
2022/08/16 06:17:53;;;;;;;34.33;24.90;;;;;;;23.66;63.14;100738.44;6122251;23;20443;-53
2022/08/16 06:20:23;;;;;;;35.28;24.75;;;;;;;24.00;62.54;100746.69;6126205;23;20019;-50
2022/08/16 06:22:50;;;;;;;32.10;22.55;;;;;;;24.69;60.87;100743.59;6104983;23;20387;-51
2022/08/16 06:25:16;;;;;;;33.15;23.38;;;;;;;25.64;57.76;100749.63;6138221;23;20063;-50
2022/08/16 06:27:43;;;;;;;34.17;24.65;;;;;;;26.39;54.97;100737.69;6114411;23;20496;-50
2022/08/16 06:30:12;;;;;;;34.90;24.27;;;;;;;27.27;52.36;100740.75;6138105;23;20030;-50
2022/08/16 06:32:38;;;;;;;34.25;24.55;;;;;;;27.65;51.27;100743.91;6132514;23;20104;-49
2022/08/16 06:35:04;;;;;;;30.50;22.90;;;;;;;28.21;50.73;100736.00;6113599;23;20005;-50
2022/08/16 06:37:30;;;;;;;37.28;25.20;;;;;;;28.82;48.17;100736.66;6131958;23;20451;-49
2022/08/16 06:40:00;;;;;;;37.10;24.75;;;;;;;28.62;48.97;100746.81;6129264;23;20020;-48
2022/08/16 06:42:25;;;;;;;32.97;22.35;;;;;;;29.25;47.40;100732.03;6112966;23;20381;-51
2022/08/16 06:44:55;;;;;;;31.88;24.00;;;;;;;28.92;48.75;100727.03;6124168;23;20279;-48
2022/08/16 06:47:21;;;;;;;36.72;24.63;;;;;;;29.06;48.75;100732.38;6129593;23;20067;-57
2022/08/16 06:49:47;;;;;;;31.98;24.58;;;;;;;29.64;46.35;100733.91;6099250;23;20096;-47
2022/08/16 06:52:13;;;;;;;34.85;24.30;;;;;;;29.27;47.97;100735.50;6136772;23;20540;-46
2022/08/16 06:54:38;;;;;;;32.15;23.70;;;;;;;29.68;47.09;100738.97;6107366;23;20532;-48
2022/08/16 06:57:04;;;;;;;32.58;23.63;;;;;;;29.91;46.70;100731.13;6132546;23;20036;-48
2022/08/16 06:59:31;;;;;;;33.40;24.45;;;;;;;29.79;46.78;100747.16;6139810;23;20005;-49
2022/08/16 07:02:11;;;;;;;32.03;24.38;;;;;;;29.98;46.59;100744.09;6129565;23;20688;-50
2022/08/16 07:04:39;;;;;;;30.00;21.15;;;;;;;30.77;44.63;100737.59;6130145;23;20100;-52
2022/08/16 07:07:05;;;;;;;31.67;22.55;;;;;;;30.48;45.31;100740.56;6134025;23;20016;-55
2022/08/16 07:09:35;;;;;;;35.15;24.35;;;;;;;30.09;46.51;100754.94;6134718;23;20009;-57
2022/08/16 07:12:01;;;;;;;30.25;22.00;;;;;;;30.25;46.10;100742.13;6096231;23;20441;-56
2022/08/16 07:14:27;;;;;;;30.52;24.65;;;;;;;29.43;48.51;100750.50;6136735;23;20012;-56
2022/08/16 07:16:57;;;;;;;34.75;25.38;;;;;;;29.36;48.07;100751.88;6134137;23;20044;-55
2022/08/16 07:19:22;;;;;;;39.60;24.73;;;;;;;29.55;48.46;100759.56;6129966;23;20520;-53
2022/08/16 07:21:49;;;;;;;37.08;24.35;;;;;;;29.54;48.56;100751.59;6130024;23;20033;-53
2022/08/16 07:24:16;;;;;;;34.10;24.80;;;;;;;29.39;48.89;100759.75;6134914;23;20009;-55
2022/08/16 07:26:42;;;;;;;36.83;25.02;;;;;;;29.27;48.81;100762.34;6134896;23;20005;-50
2022/08/16 07:29:07;;;;;;;37.72;25.98;;;;;;;29.27;49.75;100767.72;6125055;23;20820;-56
2022/08/16 07:31:33;;;;;;;35.15;25.40;;;;;;;29.05;49.93;100769.09;6137649;23;20005;-53
2022/08/16 07:33:59;;;;;;;38.45;25.60;;;;;;;29.14;50.45;100770.34;6096450;23;20385;-54
2022/08/16 07:36:25;;;;;;;37.67;26.38;;;;;;;28.88;51.44;100779.19;6111954;23;20071;-48
2022/08/16 07:38:53;;;;;;;36.65;26.35;;;;;;;28.85;51.78;100785.63;6125639;23;20271;-47
2022/08/16 07:41:20;;;;;;;38.22;26.08;;;;;;;28.94;51.84;100781.50;6129621;23;20084;-47
2022/08/16 07:43:45;;;;;;;39.75;26.23;;;;;;;28.86;51.58;100778.44;6127278;23;20295;-47
2022/08/16 07:46:11;;;;;;;37.88;26.33;;;;;;;28.90;51.53;100782.66;6139774;23;20491;-46
2022/08/16 07:48:36;;;;;;;34.45;24.33;;;;;;;29.89;48.43;100786.84;6127740;23;20016;-45
2022/08/16 07:51:02;;;;;;;39.25;27.02;;;;;;;29.46;50.44;100787.03;6130620;23;20453;-48
2022/08/16 07:53:30;;;;;;;42.13;26.55;;;;;;;29.42;50.09;100791.75;6138973;23;20020;-47
2022/08/16 07:55:58;;;;;;;40.67;26.67;;;;;;;29.82;49.10;100789.94;6126082;23;20283;-47
2022/08/16 07:58:23;;;;;;;34.30;24.02;;;;;;;30.68;47.86;100787.53;6134855;23;20425;-47
2022/08/16 08:00:49;;;;;;;36.65;26.17;;;;;;;30.50;47.76;100789.72;6135387;23;20012;-46
2022/08/16 08:03:14;;;;;;;36.70;25.08;;;;;;;30.53;47.71;100784.13;6142255;23;20032;-48
2022/08/16 08:05:40;;;;;;;35.83;23.13;;;;;;;31.37;45.85;100786.94;6135675;23;20488;-47
2022/08/16 08:08:08;;;;;;;35.53;23.98;;;;;;;31.40;46.33;100792.13;6127508;23;20670;-47
2022/08/16 08:10:33;;;;;;;35.38;24.75;;;;;;;31.19;45.56;100788.31;6135708;23;20341;-46
2022/08/16 08:12:59;;;;;;;29.23;21.88;;;;;;;31.26;45.64;100788.72;6135275;23;20048;-47
2022/08/16 08:15:24;;;;;;;34.03;23.52;;;;;;;30.85;46.36;100780.97;6136501;23;20059;-46
2022/08/16 08:17:50;;;;;;;31.75;21.75;;;;;;;31.53;45.07;100788.50;6129409;23;20180;-48
2022/08/16 08:20:19;;;;;;;35.78;23.48;;;;;;;31.27;46.44;100776.97;6134337;23;20425;-47
2022/08/16 08:22:46;;;;;;;29.88;23.02;;;;;;;30.85;47.09;100783.66;6136113;23;20032;-47
2022/08/16 08:25:12;;;;;;;35.05;22.23;;;;;;;30.99;46.98;100791.56;6131596;23;20020;-47
2022/08/16 08:27:38;;;;;;;28.63;21.58;;;;;;;31.07;46.71;100791.91;6127566;23;20009;-49
2022/08/16 08:30:04;;;;;;;35.03;23.95;;;;;;;30.69;47.69;100791.97;6135487;23;20013;-52
2022/08/16 08:32:30;;;;;;;33.30;23.25;;;;;;;30.42;48.55;100801.97;6138661;23;20009;-47
2022/08/16 08:34:57;;;;;;;31.77;25.05;;;;;;;29.84;50.04;100804.13;6133145;23;20032;-48
2022/08/16 08:37:24;;;;;;;36.28;24.55;;;;;;;30.23;49.56;100808.63;6120021;23;20020;-53
2022/08/16 08:39:50;;;;;;;35.60;25.08;;;;;;;30.27;48.73;100803.03;6127479;23;20009;-51
2022/08/16 08:42:15;;;;;;;39.50;27.10;;;;;;;29.39;50.36;100809.91;6133447;23;20499;-48
2022/08/16 08:44:41;;;;;;;36.40;24.95;;;;;;;29.82;50.09;100830.25;6138714;23;20088;-48
2022/08/16 08:47:10;;;;;;;37.67;26.67;;;;;;;30.32;48.43;100836.72;6138104;23;20012;-48
2022/08/16 08:49:51;;;;;;;41.25;29.48;;;;;;;29.08;50.48;100831.63;6118151;23;20031;-57
2022/08/16 08:52:22;;;;;;;37.95;26.48;;;;;;;29.61;50.03;100834.38;6111153;23;20013;-49
2022/08/16 08:54:50;;;;;;;38.80;27.98;;;;;;;29.58;50.10;100839.94;6100895;23;20104;-52
2022/08/16 08:57:17;;;;;;;37.33;26.40;;;;;;;29.46;50.15;100831.84;6123984;23;20991;-55
2022/08/16 08:59:45;;;;;;;43.72;28.77;;;;;;;29.46;50.02;100834.53;6088578;23;20452;-56
2022/08/16 09:02:11;;;;;;;37.35;28.00;;;;;;;29.42;50.39;100839.22;6125519;23;20004;-52
2022/08/16 09:04:37;;;;;;;42.22;26.58;;;;;;;30.09;48.91;100838.31;6128964;23;20056;-54
2022/08/16 09:07:02;;;;;;;36.63;26.27;;;;;;;30.35;49.16;100854.47;6125931;23;20040;-52
2022/08/16 09:09:31;;;;;;;31.85;23.52;;;;;;;30.41;49.16;100854.91;6135057;23;20445;-54
2022/08/16 09:11:56;;;;;;;34.33;24.90;;;;;;;30.57;47.86;100855.59;6118755;23;20064;-53
2022/08/16 09:14:42;;;;;;;34.65;24.92;;;;;;;30.55;48.29;100851.31;6131741;23;20016;-54
2022/08/16 14:18:28;;;;;;;18.42;11.73;;;;;;;31.39;45.98;100983.53;6155161;23;20657;-57
2022/08/16 14:20:53;;;;;;;22.50;14.98;;;;;;;31.35;45.36;100974.78;6156514;23;20021;-58
2022/08/16 14:23:19;;;;;;;20.35;12.13;;;;;;;31.40;45.21;100974.47;6141020;23;20092;-58
2022/08/16 14:25:45;;;;;;;23.23;14.00;;;;;;;31.25;46.27;100979.13;6155223;23;20278;-57
2022/08/16 14:28:10;;;;;;;20.52;14.02;;;;;;;31.29;44.95;100975.22;6136270;23;20043;-57
2022/08/16 14:30:37;;;;;;;23.48;15.13;;;;;;;31.15;46.23;100980.75;6132782;23;20012;-57
2022/08/16 14:33:03;;;;;;;20.80;14.05;;;;;;;31.00;47.08;100984.47;6159010;23;20012;-59
2022/08/16 14:35:31;;;;;;;20.48;13.82;;;;;;;30.76;47.39;100980.78;6138360;23;20884;-57
2022/08/16 14:37:57;;;;;;;21.48;16.02;;;;;;;30.77;46.98;100978.00;6157703;23;20391;-58
2022/08/16 14:40:23;;;;;;;20.52;14.85;;;;;;;30.78;47.00;100974.34;6164714;23;20554;-59
2022/08/16 14:42:50;;;;;;;26.67;14.15;;;;;;;30.91;46.44;100977.06;6153194;23;20900;-58
2022/08/16 14:45:22;;;;;;;27.77;16.27;;;;;;;30.82;45.90;100985.75;6133013;23;20055;-58
2022/08/16 14:47:47;;;;;;;23.08;16.30;;;;;;;30.82;46.43;100983.94;6160036;23;20024;-58
2022/08/16 14:50:16;;;;;;;23.70;15.30;;;;;;;30.61;47.66;100990.81;6158010;23;20062;-58
2022/08/16 14:52:45;;;;;;;20.50;15.85;;;;;;;30.82;46.29;100992.00;6157593;23;20331;-58
2022/08/16 14:55:11;;;;;;;22.83;15.35;;;;;;;30.81;46.40;100994.78;6146503;23;20047;-58
2022/08/16 14:57:38;;;;;;;23.40;16.85;;;;;;;30.93;45.81;100996.63;6160525;23;20760;-58
2022/08/16 15:00:08;;;;;;;24.35;16.05;;;;;;;30.83;46.73;100995.56;6166447;23;20012;-59
2022/08/16 15:02:34;;;;;;;23.17;14.88;;;;;;;30.77;47.22;100998.69;6153702;23;20412;-57
2022/08/16 15:04:59;;;;;;;25.42;15.10;;;;;;;30.80;46.70;100999.31;6141064;23;20328;-57
2022/08/16 15:07:25;;;;;;;24.55;15.15;;;;;;;30.79;46.75;101002.13;6133644;23;20098;-57
2022/08/16 15:09:50;;;;;;;20.27;14.15;;;;;;;31.04;46.07;100997.63;6139283;23;20446;-58
2022/08/16 15:12:20;;;;;;;21.88;15.82;;;;;;;30.97;46.40;101000.84;6143873;23;20013;-58
2022/08/16 15:14:48;;;;;;;22.27;14.13;;;;;;;30.94;45.81;101003.75;6153328;23;20047;-58
2022/08/16 15:17:14;;;;;;;22.17;15.02;;;;;;;30.74;46.06;101006.97;6166630;23;20004;-58
2022/08/16 15:19:42;;;;;;;21.10;14.18;;;;;;;30.45;46.96;101007.06;6158301;23;20353;-58
2022/08/16 15:22:14;;;;;;;25.50;15.20;;;;;;;30.36;47.20;100998.78;6159915;23;20009;-58
2022/08/16 15:24:41;;;;;;;18.13;13.30;;;;;;;30.44;47.00;101004.47;6151526;23;20310;-57
2022/08/16 15:27:06;;;;;;;22.08;14.30;;;;;;;30.32;46.75;101005.28;6132757;23;19997;-58
2022/08/16 15:29:33;;;;;;;18.13;12.55;;;;;;;30.22;46.53;101005.06;6103767;23;20472;-58
2022/08/16 15:31:58;;;;;;;18.77;13.23;;;;;;;30.34;45.61;100998.00;6136361;23;20416;-58
2022/08/16 15:34:24;;;;;;;20.52;13.32;;;;;;;30.18;45.67;101001.72;6134362;23;20009;-57
2022/08/16 15:36:50;;;;;;;19.13;11.90;;;;;;;30.36;44.64;101001.47;6150378;23;20001;-57
2022/08/16 15:39:16;;;;;;;16.75;12.00;;;;;;;30.41;44.29;101002.88;6169071;23;20444;-57
2022/08/16 15:41:41;;;;;;;17.60;10.90;;;;;;;30.39;44.12;100999.41;6140661;23;20016;-58
2022/08/16 15:44:11;;;;;;;16.13;10.32;;;;;;;30.53;41.18;101002.06;6152908;23;20012;-57
2022/08/16 15:46:38;;;;;;;14.75;8.45;;;;;;;30.65;40.93;101011.16;6156191;23;20348;-56
2022/08/16 15:49:03;;;;;;;12.82;8.90;;;;;;;30.66;41.44;101012.88;6160734;23;20044;-58
2022/08/16 15:51:29;;;;;;;13.27;9.38;;;;;;;30.70;40.50;101005.44;6141595;23;20017;-57
2022/08/16 15:53:54;;;;;;;15.32;9.20;;;;;;;30.56;41.69;101009.06;6145166;23;20031;-59
2022/08/16 15:56:23;;;;;;;14.35;9.70;;;;;;;30.32;42.76;100998.09;6157111;23;20302;-58
2022/08/16 15:58:48;;;;;;;15.50;9.73;;;;;;;30.18;43.46;101008.94;6166748;23;20050;-58
2022/08/16 16:01:17;;;;;;;13.27;10.20;;;;;;;30.02;43.41;101014.44;6133112;23;20016;-59
2022/08/16 16:03:42;;;;;;;13.88;9.90;;;;;;;30.23;41.11;101009.47;6159335;23;20384;-58
2022/08/16 16:06:08;;;;;;;12.35;8.18;;;;;;;30.13;41.52;101016.44;6172374;23;20013;-58
2022/08/16 16:08:34;;;;;;;17.23;8.30;;;;;;;30.06;41.74;101015.97;6150389;23;20016;-58
2022/08/16 16:11:05;;;;;;;11.80;8.75;;;;;;;29.85;43.49;101023.56;6166571;23;20327;-57
2022/08/16 16:13:41;;;;;;;13.75;9.73;;;;;;;29.83;42.32;101019.25;6153552;23;20012;-59